sensor_id;sensor_type;location;lat;lon;timestamp;P1;durP1;ratioP1;P2;durP2;ratioP2
23304;SDS011;11821;51.456;8.844;2023-07-02T00:01:47;6.25;;;5.65;;
23304;SDS011;11821;51.456;8.844;2023-07-02T00:04:14;6.18;;;4.90;;
23304;SDS011;11821;51.456;8.844;2023-07-02T00:06:42;6.05;;;5.55;;
23304;SDS011;11821;51.456;8.844;2023-07-02T00:09:09;5.72;;;5.32;;
23304;SDS011;11821;51.456;8.844;2023-07-02T00:11:40;10.18;;;5.50;;
23304;SDS011;11821;51.456;8.844;2023-07-02T00:14:07;6.88;;;5.28;;
23304;SDS011;11821;51.456;8.844;2023-07-02T00:16:35;6.05;;;5.55;;
23304;SDS011;11821;51.456;8.844;2023-07-02T00:19:01;6.32;;;5.68;;
23304;SDS011;11821;51.456;8.844;2023-07-02T00:21:28;5.63;;;5.22;;
23304;SDS011;11821;51.456;8.844;2023-07-02T00:23:55;6.25;;;5.65;;
23304;SDS011;11821;51.456;8.844;2023-07-02T00:26:23;5.15;;;4.75;;
23304;SDS011;11821;51.456;8.844;2023-07-02T00:28:54;6.45;;;5.55;;
23304;SDS011;11821;51.456;8.844;2023-07-02T00:31:21;7.43;;;6.72;;
23304;SDS011;11821;51.456;8.844;2023-07-02T00:33:49;6.57;;;5.97;;
23304;SDS011;11821;51.456;8.844;2023-07-02T00:36:16;6.45;;;5.80;;
23304;SDS011;11821;51.456;8.844;2023-07-02T00:38:44;7.13;;;6.47;;
23304;SDS011;11821;51.456;8.844;2023-07-02T00:41:11;6.47;;;6.00;;
23304;SDS011;11821;51.456;8.844;2023-07-02T00:43:38;6.40;;;5.90;;
23304;SDS011;11821;51.456;8.844;2023-07-02T00:46:09;7.18;;;5.93;;
23304;SDS011;11821;51.456;8.844;2023-07-02T00:48:38;6.00;;;5.60;;
23304;SDS011;11821;51.456;8.844;2023-07-02T00:51:05;5.15;;;4.75;;
23304;SDS011;11821;51.456;8.844;2023-07-02T00:53:32;6.03;;;5.55;;
23304;SDS011;11821;51.456;8.844;2023-07-02T00:55:59;5.63;;;5.13;;
23304;SDS011;11821;51.456;8.844;2023-07-02T00:58:26;7.35;;;6.32;;
23304;SDS011;11821;51.456;8.844;2023-07-02T01:00:53;6.20;;;5.70;;
23304;SDS011;11821;51.456;8.844;2023-07-02T01:03:22;6.80;;;6.10;;
23304;SDS011;11821;51.456;8.844;2023-07-02T01:05:48;6.43;;;5.80;;
23304;SDS011;11821;51.456;8.844;2023-07-02T01:08:15;5.45;;;5.05;;
23304;SDS011;11821;51.456;8.844;2023-07-02T01:10:44;5.45;;;4.95;;
23304;SDS011;11821;51.456;8.844;2023-07-02T01:13:12;6.28;;;5.63;;
23304;SDS011;11821;51.456;8.844;2023-07-02T01:15:40;7.78;;;5.25;;
23304;SDS011;11821;51.456;8.844;2023-07-02T01:18:08;6.38;;;5.57;;
23304;SDS011;11821;51.456;8.844;2023-07-02T01:20:34;4.80;;;4.40;;
23304;SDS011;11821;51.456;8.844;2023-07-02T01:23:01;6.22;;;5.63;;
23304;SDS011;11821;51.456;8.844;2023-07-02T01:25:29;8.77;;;5.28;;
23304;SDS011;11821;51.456;8.844;2023-07-02T01:27:56;5.82;;;5.43;;
23304;SDS011;11821;51.456;8.844;2023-07-02T01:30:24;4.13;;;3.83;;
23304;SDS011;11821;51.456;8.844;2023-07-02T01:32:51;6.65;;;5.38;;
23304;SDS011;11821;51.456;8.844;2023-07-02T01:35:18;6.05;;;5.65;;
23304;SDS011;11821;51.456;8.844;2023-07-02T01:37:45;5.45;;;5.05;;
23304;SDS011;11821;51.456;8.844;2023-07-02T01:40:12;6.88;;;5.70;;
23304;SDS011;11821;51.456;8.844;2023-07-02T01:42:38;5.78;;;5.28;;
23304;SDS011;11821;51.456;8.844;2023-07-02T01:45:05;5.15;;;4.75;;
23304;SDS011;11821;51.456;8.844;2023-07-02T01:47:32;5.47;;;5.07;;
23304;SDS011;11821;51.456;8.844;2023-07-02T01:49:58;5.93;;;4.40;;
23304;SDS011;11821;51.456;8.844;2023-07-02T01:52:25;5.00;;;4.60;;
23304;SDS011;11821;51.456;8.844;2023-07-02T01:54:53;5.13;;;4.03;;
23304;SDS011;11821;51.456;8.844;2023-07-02T01:57:20;5.00;;;4.60;;
23304;SDS011;11821;51.456;8.844;2023-07-02T01:59:46;5.45;;;4.88;;
23304;SDS011;11821;51.456;8.844;2023-07-02T02:02:13;5.55;;;5.15;;
23304;SDS011;11821;51.456;8.844;2023-07-02T02:04:40;5.53;;;5.13;;
23304;SDS011;11821;51.456;8.844;2023-07-02T02:07:06;4.82;;;4.43;;
23304;SDS011;11821;51.456;8.844;2023-07-02T02:09:33;5.22;;;4.82;;
23304;SDS011;11821;51.456;8.844;2023-07-02T02:11:59;5.95;;;5.25;;
23304;SDS011;11821;51.456;8.844;2023-07-02T02:14:25;5.50;;;5.07;;
23304;SDS011;11821;51.456;8.844;2023-07-02T02:16:52;5.07;;;4.68;;
23304;SDS011;11821;51.456;8.844;2023-07-02T02:19:18;5.30;;;4.70;;
23304;SDS011;11821;51.456;8.844;2023-07-02T02:21:44;6.90;;;5.57;;
23304;SDS011;11821;51.456;8.844;2023-07-02T02:24:12;15.13;;;5.57;;
23304;SDS011;11821;51.456;8.844;2023-07-02T02:26:38;5.88;;;5.07;;
23304;SDS011;11821;51.456;8.844;2023-07-02T02:29:05;6.45;;;5.90;;
23304;SDS011;11821;51.456;8.844;2023-07-02T02:31:31;9.50;;;6.30;;
23304;SDS011;11821;51.456;8.844;2023-07-02T02:33:58;5.68;;;5.18;;
23304;SDS011;11821;51.456;8.844;2023-07-02T02:36:24;4.65;;;4.25;;
23304;SDS011;11821;51.456;8.844;2023-07-02T02:38:51;6.65;;;6.15;;
23304;SDS011;11821;51.456;8.844;2023-07-02T02:41:17;4.80;;;4.40;;
23304;SDS011;11821;51.456;8.844;2023-07-02T02:43:48;5.13;;;4.72;;
23304;SDS011;11821;51.456;8.844;2023-07-02T02:46:21;5.75;;;5.25;;
23304;SDS011;11821;51.456;8.844;2023-07-02T02:48:48;6.28;;;5.35;;
23304;SDS011;11821;51.456;8.844;2023-07-02T02:51:15;6.00;;;5.60;;
23304;SDS011;11821;51.456;8.844;2023-07-02T02:53:41;6.70;;;5.47;;
23304;SDS011;11821;51.456;8.844;2023-07-02T02:56:08;7.38;;;6.70;;
23304;SDS011;11821;51.456;8.844;2023-07-02T02:58:34;6.32;;;5.68;;
23304;SDS011;11821;51.456;8.844;2023-07-02T03:01:00;6.30;;;5.45;;
23304;SDS011;11821;51.456;8.844;2023-07-02T03:03:27;5.90;;;5.45;;
23304;SDS011;11821;51.456;8.844;2023-07-02T03:05:53;6.47;;;5.72;;
23304;SDS011;11821;51.456;8.844;2023-07-02T03:08:19;6.70;;;6.10;;
23304;SDS011;11821;51.456;8.844;2023-07-02T03:10:46;4.65;;;3.33;;
23304;SDS011;11821;51.456;8.844;2023-07-02T03:13:13;5.45;;;4.90;;
23304;SDS011;11821;51.456;8.844;2023-07-02T03:15:39;6.63;;;4.85;;
23304;SDS011;11821;51.456;8.844;2023-07-02T03:18:06;6.25;;;5.13;;
23304;SDS011;11821;51.456;8.844;2023-07-02T03:20:32;6.95;;;5.95;;
23304;SDS011;11821;51.456;8.844;2023-07-02T03:22:59;10.90;;;5.55;;
23304;SDS011;11821;51.456;8.844;2023-07-02T03:25:26;7.20;;;5.05;;
23304;SDS011;11821;51.456;8.844;2023-07-02T03:27:52;5.95;;;5.35;;
23304;SDS011;11821;51.456;8.844;2023-07-02T03:30:19;5.60;;;5.20;;
23304;SDS011;11821;51.456;8.844;2023-07-02T03:32:45;6.80;;;5.70;;
23304;SDS011;11821;51.456;8.844;2023-07-02T03:35:12;6.07;;;5.40;;
23304;SDS011;11821;51.456;8.844;2023-07-02T03:37:38;5.43;;;4.95;;
23304;SDS011;11821;51.456;8.844;2023-07-02T03:40:09;5.63;;;5.13;;
23304;SDS011;11821;51.456;8.844;2023-07-02T03:42:35;5.85;;;5.25;;
23304;SDS011;11821;51.456;8.844;2023-07-02T03:45:02;5.22;;;4.82;;
23304;SDS011;11821;51.456;8.844;2023-07-02T03:47:29;4.45;;;4.15;;
23304;SDS011;11821;51.456;8.844;2023-07-02T03:49:55;5.55;;;5.05;;
23304;SDS011;11821;51.456;8.844;2023-07-02T03:52:22;4.47;;;4.07;;
23304;SDS011;11821;51.456;8.844;2023-07-02T03:54:49;5.30;;;4.90;;
23304;SDS011;11821;51.456;8.844;2023-07-02T03:57:15;9.85;;;5.43;;
23304;SDS011;11821;51.456;8.844;2023-07-02T03:59:42;6.10;;;5.50;;
23304;SDS011;11821;51.456;8.844;2023-07-02T04:02:08;4.70;;;4.30;;
23304;SDS011;11821;51.456;8.844;2023-07-02T04:04:35;5.75;;;5.15;;
23304;SDS011;11821;51.456;8.844;2023-07-02T04:07:01;4.50;;;4.05;;
23304;SDS011;11821;51.456;8.844;2023-07-02T04:09:28;6.53;;;4.80;;
23304;SDS011;11821;51.456;8.844;2023-07-02T04:11:54;5.25;;;4.72;;
23304;SDS011;11821;51.456;8.844;2023-07-02T04:14:21;5.75;;;4.55;;
23304;SDS011;11821;51.456;8.844;2023-07-02T04:16:47;5.25;;;4.82;;
23304;SDS011;11821;51.456;8.844;2023-07-02T04:19:14;5.00;;;4.50;;
23304;SDS011;11821;51.456;8.844;2023-07-02T04:21:41;6.25;;;4.13;;
23304;SDS011;11821;51.456;8.844;2023-07-02T04:24:07;5.47;;;4.28;;
23304;SDS011;11821;51.456;8.844;2023-07-02T04:26:34;7.00;;;4.40;;
23304;SDS011;11821;51.456;8.844;2023-07-02T04:29:02;8.95;;;4.65;;
23304;SDS011;11821;51.456;8.844;2023-07-02T04:31:28;5.72;;;4.90;;
23304;SDS011;11821;51.456;8.844;2023-07-02T04:33:55;6.13;;;4.32;;
23304;SDS011;11821;51.456;8.844;2023-07-02T04:36:21;5.05;;;4.65;;
23304;SDS011;11821;51.456;8.844;2023-07-02T04:38:48;6.63;;;5.85;;
23304;SDS011;11821;51.456;8.844;2023-07-02T04:41:14;6.20;;;5.40;;
23304;SDS011;11821;51.456;8.844;2023-07-02T04:43:41;8.43;;;6.25;;
23304;SDS011;11821;51.456;8.844;2023-07-02T04:46:09;8.77;;;5.82;;
23304;SDS011;11821;51.456;8.844;2023-07-02T04:48:38;7.30;;;6.47;;
23304;SDS011;11821;51.456;8.844;2023-07-02T04:51:04;10.02;;;6.25;;
23304;SDS011;11821;51.456;8.844;2023-07-02T04:53:31;8.15;;;6.95;;
23304;SDS011;11821;51.456;8.844;2023-07-02T04:55:57;12.80;;;6.80;;
23304;SDS011;11821;51.456;8.844;2023-07-02T04:58:24;9.30;;;6.68;;
23304;SDS011;11821;51.456;8.844;2023-07-02T05:00:50;10.05;;;7.57;;
23304;SDS011;11821;51.456;8.844;2023-07-02T05:03:17;9.75;;;6.90;;
23304;SDS011;11821;51.456;8.844;2023-07-02T05:05:43;10.98;;;8.25;;
23304;SDS011;11821;51.456;8.844;2023-07-02T05:08:10;13.13;;;7.85;;
23304;SDS011;11821;51.456;8.844;2023-07-02T05:10:37;13.60;;;8.73;;
23304;SDS011;11821;51.456;8.844;2023-07-02T05:13:03;12.93;;;7.90;;
23304;SDS011;11821;51.456;8.844;2023-07-02T05:15:30;10.90;;;8.68;;
23304;SDS011;11821;51.456;8.844;2023-07-02T05:17:56;15.07;;;9.82;;
23304;SDS011;11821;51.456;8.844;2023-07-02T05:20:23;14.38;;;9.82;;
23304;SDS011;11821;51.456;8.844;2023-07-02T05:22:49;13.68;;;9.45;;
23304;SDS011;11821;51.456;8.844;2023-07-02T05:25:16;16.38;;;9.88;;
23304;SDS011;11821;51.456;8.844;2023-07-02T05:27:43;15.55;;;10.27;;
23304;SDS011;11821;51.456;8.844;2023-07-02T05:30:09;16.02;;;11.02;;
23304;SDS011;11821;51.456;8.844;2023-07-02T05:32:36;14.35;;;10.38;;
23304;SDS011;11821;51.456;8.844;2023-07-02T05:35:04;16.88;;;10.13;;
23304;SDS011;11821;51.456;8.844;2023-07-02T05:37:31;16.08;;;10.20;;
23304;SDS011;11821;51.456;8.844;2023-07-02T05:39:58;15.00;;;11.05;;
23304;SDS011;11821;51.456;8.844;2023-07-02T05:42:24;16.52;;;11.43;;
23304;SDS011;11821;51.456;8.844;2023-07-02T05:44:51;16.65;;;10.68;;
23304;SDS011;11821;51.456;8.844;2023-07-02T05:47:17;14.23;;;10.52;;
23304;SDS011;11821;51.456;8.844;2023-07-02T05:49:44;17.05;;;11.07;;
23304;SDS011;11821;51.456;8.844;2023-07-02T05:52:10;15.48;;;10.25;;
23304;SDS011;11821;51.456;8.844;2023-07-02T05:54:40;18.17;;;11.20;;
23304;SDS011;11821;51.456;8.844;2023-07-02T05:57:07;15.73;;;10.30;;
23304;SDS011;11821;51.456;8.844;2023-07-02T05:59:33;15.05;;;10.23;;
23304;SDS011;11821;51.456;8.844;2023-07-02T06:02:00;17.88;;;10.55;;
23304;SDS011;11821;51.456;8.844;2023-07-02T06:04:26;12.00;;;10.20;;
23304;SDS011;11821;51.456;8.844;2023-07-02T06:06:53;14.43;;;10.13;;
23304;SDS011;11821;51.456;8.844;2023-07-02T06:09:20;18.55;;;10.88;;
23304;SDS011;11821;51.456;8.844;2023-07-02T06:11:46;20.02;;;10.50;;
23304;SDS011;11821;51.456;8.844;2023-07-02T06:14:13;20.23;;;9.77;;
23304;SDS011;11821;51.456;8.844;2023-07-02T06:16:39;16.38;;;10.93;;
23304;SDS011;11821;51.456;8.844;2023-07-02T06:19:07;14.98;;;9.65;;
23304;SDS011;11821;51.456;8.844;2023-07-02T06:21:33;16.05;;;9.68;;
23304;SDS011;11821;51.456;8.844;2023-07-02T06:24:00;14.85;;;9.00;;
23304;SDS011;11821;51.456;8.844;2023-07-02T06:26:27;12.10;;;8.77;;
23304;SDS011;11821;51.456;8.844;2023-07-02T06:28:54;18.98;;;9.90;;
23304;SDS011;11821;51.456;8.844;2023-07-02T06:31:20;16.70;;;9.82;;
23304;SDS011;11821;51.456;8.844;2023-07-02T06:33:47;19.35;;;9.43;;
23304;SDS011;11821;51.456;8.844;2023-07-02T06:36:13;16.33;;;9.07;;
23304;SDS011;11821;51.456;8.844;2023-07-02T06:38:40;17.40;;;8.57;;
23304;SDS011;11821;51.456;8.844;2023-07-02T06:41:07;13.55;;;8.60;;
23304;SDS011;11821;51.456;8.844;2023-07-02T06:43:33;17.20;;;8.73;;
23304;SDS011;11821;51.456;8.844;2023-07-02T06:46:00;12.15;;;8.35;;
23304;SDS011;11821;51.456;8.844;2023-07-02T06:48:27;16.98;;;9.10;;
23304;SDS011;11821;51.456;8.844;2023-07-02T06:50:55;15.02;;;8.77;;
23304;SDS011;11821;51.456;8.844;2023-07-02T06:53:21;17.13;;;8.88;;
23304;SDS011;11821;51.456;8.844;2023-07-02T06:55:48;17.90;;;8.80;;
23304;SDS011;11821;51.456;8.844;2023-07-02T06:58:15;19.88;;;8.90;;
23304;SDS011;11821;51.456;8.844;2023-07-02T07:00:41;17.85;;;9.20;;
23304;SDS011;11821;51.456;8.844;2023-07-02T07:03:08;22.23;;;9.10;;
23304;SDS011;11821;51.456;8.844;2023-07-02T07:05:34;15.10;;;8.70;;
23304;SDS011;11821;51.456;8.844;2023-07-02T07:08:01;11.60;;;8.35;;
23304;SDS011;11821;51.456;8.844;2023-07-02T07:10:27;21.58;;;9.23;;
23304;SDS011;11821;51.456;8.844;2023-07-02T07:13:02;15.30;;;8.35;;
23304;SDS011;11821;51.456;8.844;2023-07-02T07:15:32;17.30;;;8.30;;
23304;SDS011;11821;51.456;8.844;2023-07-02T07:17:59;14.32;;;8.35;;
23304;SDS011;11821;51.456;8.844;2023-07-02T07:20:26;17.23;;;7.85;;
23304;SDS011;11821;51.456;8.844;2023-07-02T07:22:52;14.23;;;7.80;;
23304;SDS011;11821;51.456;8.844;2023-07-02T07:25:19;16.15;;;7.57;;
23304;SDS011;11821;51.456;8.844;2023-07-02T07:27:45;14.70;;;7.55;;
23304;SDS011;11821;51.456;8.844;2023-07-02T07:30:12;12.98;;;7.53;;
23304;SDS011;11821;51.456;8.844;2023-07-02T07:32:40;15.88;;;8.25;;
23304;SDS011;11821;51.456;8.844;2023-07-02T07:35:07;18.30;;;8.32;;
23304;SDS011;11821;51.456;8.844;2023-07-02T07:37:34;14.75;;;8.10;;
23304;SDS011;11821;51.456;8.844;2023-07-02T07:40:00;16.23;;;7.85;;
23304;SDS011;11821;51.456;8.844;2023-07-02T07:42:27;14.63;;;8.55;;
23304;SDS011;11821;51.456;8.844;2023-07-02T07:44:53;16.20;;;8.98;;
23304;SDS011;11821;51.456;8.844;2023-07-02T07:47:20;11.50;;;8.15;;
23304;SDS011;11821;51.456;8.844;2023-07-02T07:49:46;15.27;;;8.70;;
23304;SDS011;11821;51.456;8.844;2023-07-02T07:52:13;16.17;;;9.00;;
23304;SDS011;11821;51.456;8.844;2023-07-02T07:54:39;15.20;;;9.00;;
23304;SDS011;11821;51.456;8.844;2023-07-02T07:57:06;16.10;;;9.68;;
23304;SDS011;11821;51.456;8.844;2023-07-02T07:59:33;17.23;;;9.25;;
23304;SDS011;11821;51.456;8.844;2023-07-02T08:01:59;16.05;;;9.80;;
23304;SDS011;11821;51.456;8.844;2023-07-02T08:04:26;20.30;;;10.70;;
23304;SDS011;11821;51.456;8.844;2023-07-02T08:06:53;19.88;;;10.82;;
23304;SDS011;11821;51.456;8.844;2023-07-02T08:09:20;17.02;;;11.82;;
23304;SDS011;11821;51.456;8.844;2023-07-02T08:11:47;22.20;;;11.50;;
23304;SDS011;11821;51.456;8.844;2023-07-02T08:14:13;18.02;;;11.60;;
23304;SDS011;11821;51.456;8.844;2023-07-02T08:16:40;18.85;;;10.52;;
23304;SDS011;11821;51.456;8.844;2023-07-02T08:19:07;17.17;;;11.65;;
23304;SDS011;11821;51.456;8.844;2023-07-02T08:21:33;20.02;;;11.40;;
23304;SDS011;11821;51.456;8.844;2023-07-02T08:24:00;20.30;;;11.32;;
23304;SDS011;11821;51.456;8.844;2023-07-02T08:26:26;19.98;;;11.13;;
23304;SDS011;11821;51.456;8.844;2023-07-02T08:28:54;17.40;;;9.85;;
23304;SDS011;11821;51.456;8.844;2023-07-02T08:31:20;16.95;;;10.40;;
23304;SDS011;11821;51.456;8.844;2023-07-02T08:33:47;15.55;;;9.98;;
23304;SDS011;11821;51.456;8.844;2023-07-02T08:36:13;13.43;;;9.35;;
23304;SDS011;11821;51.456;8.844;2023-07-02T08:38:40;14.65;;;9.65;;
23304;SDS011;11821;51.456;8.844;2023-07-02T08:41:08;14.77;;;10.30;;
23304;SDS011;11821;51.456;8.844;2023-07-02T08:43:35;16.70;;;9.57;;
23304;SDS011;11821;51.456;8.844;2023-07-02T08:46:02;16.00;;;9.32;;
23304;SDS011;11821;51.456;8.844;2023-07-02T08:48:29;12.82;;;9.13;;
23304;SDS011;11821;51.456;8.844;2023-07-02T08:50:56;13.98;;;8.85;;
23304;SDS011;11821;51.456;8.844;2023-07-02T08:53:22;13.15;;;8.63;;
23304;SDS011;11821;51.456;8.844;2023-07-02T08:58:21;16.83;;;9.20;;
23304;SDS011;11821;51.456;8.844;2023-07-02T09:03:33;19.30;;;9.35;;
23304;SDS011;11821;51.456;8.844;2023-07-02T09:06:03;11.90;;;8.73;;
23304;SDS011;11821;51.456;8.844;2023-07-02T09:08:29;15.27;;;8.15;;
23304;SDS011;11821;51.456;8.844;2023-07-02T09:11:06;13.52;;;8.50;;
23304;SDS011;11821;51.456;8.844;2023-07-02T09:13:41;17.30;;;9.20;;
23304;SDS011;11821;51.456;8.844;2023-07-02T09:16:19;14.52;;;8.30;;
23304;SDS011;11821;51.456;8.844;2023-07-02T09:18:54;18.23;;;9.35;;
23304;SDS011;11821;51.456;8.844;2023-07-02T09:21:21;17.83;;;9.20;;
23304;SDS011;11821;51.456;8.844;2023-07-02T09:23:48;14.18;;;8.45;;
23304;SDS011;11821;51.456;8.844;2023-07-02T09:26:23;22.50;;;8.60;;
23304;SDS011;11821;51.456;8.844;2023-07-02T09:28:50;15.18;;;8.55;;
23304;SDS011;11821;51.456;8.844;2023-07-02T09:31:17;13.05;;;8.90;;
23304;SDS011;11821;51.456;8.844;2023-07-02T09:33:45;11.93;;;7.95;;
23304;SDS011;11821;51.456;8.844;2023-07-02T09:36:11;18.13;;;9.07;;
23304;SDS011;11821;51.456;8.844;2023-07-02T09:38:38;15.43;;;9.05;;
23304;SDS011;11821;51.456;8.844;2023-07-02T09:41:05;21.08;;;9.02;;
23304;SDS011;11821;51.456;8.844;2023-07-02T09:43:33;13.93;;;8.35;;
23304;SDS011;11821;51.456;8.844;2023-07-02T09:46:00;12.30;;;8.40;;
23304;SDS011;11821;51.456;8.844;2023-07-02T09:48:27;14.95;;;8.80;;
23304;SDS011;11821;51.456;8.844;2023-07-02T09:50:56;16.67;;;9.13;;
23304;SDS011;11821;51.456;8.844;2023-07-02T09:53:24;16.05;;;8.57;;
23304;SDS011;11821;51.456;8.844;2023-07-02T09:55:53;17.33;;;8.93;;
23304;SDS011;11821;51.456;8.844;2023-07-02T09:58:19;14.48;;;9.38;;
23304;SDS011;11821;51.456;8.844;2023-07-02T10:00:46;15.27;;;8.20;;
23304;SDS011;11821;51.456;8.844;2023-07-02T10:03:12;16.17;;;9.27;;
23304;SDS011;11821;51.456;8.844;2023-07-02T10:05:39;17.83;;;8.88;;
23304;SDS011;11821;51.456;8.844;2023-07-02T10:08:15;16.90;;;8.63;;
23304;SDS011;11821;51.456;8.844;2023-07-02T10:10:43;13.85;;;8.60;;
23304;SDS011;11821;51.456;8.844;2023-07-02T10:13:10;12.68;;;8.23;;
23304;SDS011;11821;51.456;8.844;2023-07-02T10:15:36;12.25;;;8.30;;
23304;SDS011;11821;51.456;8.844;2023-07-02T10:18:05;17.08;;;9.05;;
23304;SDS011;11821;51.456;8.844;2023-07-02T10:20:32;19.40;;;9.02;;
23304;SDS011;11821;51.456;8.844;2023-07-02T10:22:59;15.00;;;8.77;;
23304;SDS011;11821;51.456;8.844;2023-07-02T10:25:31;16.20;;;8.60;;
23304;SDS011;11821;51.456;8.844;2023-07-02T10:27:59;14.60;;;8.57;;
23304;SDS011;11821;51.456;8.844;2023-07-02T10:31:00;13.05;;;8.65;;
23304;SDS011;11821;51.456;8.844;2023-07-02T10:33:21;16.23;;;8.68;;
23304;SDS011;11821;51.456;8.844;2023-07-02T10:35:49;15.75;;;8.40;;
23304;SDS011;11821;51.456;8.844;2023-07-02T10:40:56;16.77;;;8.98;;
23304;SDS011;11821;51.456;8.844;2023-07-02T10:43:30;17.27;;;9.25;;
23304;SDS011;11821;51.456;8.844;2023-07-02T10:45:58;15.50;;;9.52;;
23304;SDS011;11821;51.456;8.844;2023-07-02T10:48:25;18.67;;;9.32;;
23304;SDS011;11821;51.456;8.844;2023-07-02T10:50:52;13.95;;;9.05;;
23304;SDS011;11821;51.456;8.844;2023-07-02T10:53:18;17.73;;;10.02;;
23304;SDS011;11821;51.456;8.844;2023-07-02T10:55:45;13.90;;;9.18;;
23304;SDS011;11821;51.456;8.844;2023-07-02T10:58:18;17.20;;;9.40;;
23304;SDS011;11821;51.456;8.844;2023-07-02T11:00:45;17.90;;;9.75;;
23304;SDS011;11821;51.456;8.844;2023-07-02T11:03:16;16.55;;;9.27;;
23304;SDS011;11821;51.456;8.844;2023-07-02T11:05:43;17.38;;;9.90;;
23304;SDS011;11821;51.456;8.844;2023-07-02T11:08:10;15.50;;;9.68;;
23304;SDS011;11821;51.456;8.844;2023-07-02T11:10:36;13.65;;;9.55;;
23304;SDS011;11821;51.456;8.844;2023-07-02T11:13:13;13.20;;;9.40;;
23304;SDS011;11821;51.456;8.844;2023-07-02T11:15:39;18.92;;;9.48;;
23304;SDS011;11821;51.456;8.844;2023-07-02T11:18:09;15.35;;;9.63;;
23304;SDS011;11821;51.456;8.844;2023-07-02T11:20:36;18.17;;;10.65;;
23304;SDS011;11821;51.456;8.844;2023-07-02T11:23:03;15.65;;;9.10;;
23304;SDS011;11821;51.456;8.844;2023-07-02T11:25:29;15.98;;;9.38;;
23304;SDS011;11821;51.456;8.844;2023-07-02T11:28:05;15.13;;;9.27;;
23304;SDS011;11821;51.456;8.844;2023-07-02T11:30:32;14.55;;;8.65;;
23304;SDS011;11821;51.456;8.844;2023-07-02T11:33:01;17.40;;;8.90;;
23304;SDS011;11821;51.456;8.844;2023-07-02T11:35:34;17.83;;;10.05;;
23304;SDS011;11821;51.456;8.844;2023-07-02T11:38:01;13.65;;;9.07;;
23304;SDS011;11821;51.456;8.844;2023-07-02T11:40:28;18.13;;;9.57;;
23304;SDS011;11821;51.456;8.844;2023-07-02T11:42:54;15.80;;;8.68;;
23304;SDS011;11821;51.456;8.844;2023-07-02T11:45:21;18.17;;;8.98;;
23304;SDS011;11821;51.456;8.844;2023-07-02T11:47:47;14.52;;;8.65;;
23304;SDS011;11821;51.456;8.844;2023-07-02T11:50:14;12.73;;;8.32;;
23304;SDS011;11821;51.456;8.844;2023-07-02T11:52:41;13.23;;;9.27;;
23304;SDS011;11821;51.456;8.844;2023-07-02T11:55:07;12.07;;;8.15;;
23304;SDS011;11821;51.456;8.844;2023-07-02T11:57:34;11.80;;;8.15;;
23304;SDS011;11821;51.456;8.844;2023-07-02T12:00:00;16.75;;;9.10;;
23304;SDS011;11821;51.456;8.844;2023-07-02T12:02:27;18.30;;;8.93;;
23304;SDS011;11821;51.456;8.844;2023-07-02T12:04:53;20.27;;;10.07;;
23304;SDS011;11821;51.456;8.844;2023-07-02T12:07:20;16.42;;;8.30;;
23304;SDS011;11821;51.456;8.844;2023-07-02T12:09:47;16.63;;;8.90;;
23304;SDS011;11821;51.456;8.844;2023-07-02T12:12:13;14.88;;;8.75;;
23304;SDS011;11821;51.456;8.844;2023-07-02T12:14:41;18.95;;;9.43;;
23304;SDS011;11821;51.456;8.844;2023-07-02T12:17:09;15.25;;;9.48;;
23304;SDS011;11821;51.456;8.844;2023-07-02T12:19:41;18.88;;;9.30;;
23304;SDS011;11821;51.456;8.844;2023-07-02T12:22:07;18.08;;;8.88;;
23304;SDS011;11821;51.456;8.844;2023-07-02T12:24:33;12.63;;;8.82;;
23304;SDS011;11821;51.456;8.844;2023-07-02T12:27:00;17.55;;;10.32;;
23304;SDS011;11821;51.456;8.844;2023-07-02T12:29:26;26.17;;;9.95;;
23304;SDS011;11821;51.456;8.844;2023-07-02T12:31:52;21.40;;;10.15;;
23304;SDS011;11821;51.456;8.844;2023-07-02T12:34:19;14.98;;;9.55;;
23304;SDS011;11821;51.456;8.844;2023-07-02T12:36:45;18.25;;;9.55;;
23304;SDS011;11821;51.456;8.844;2023-07-02T12:39:11;17.80;;;10.38;;
23304;SDS011;11821;51.456;8.844;2023-07-02T12:41:37;16.13;;;10.25;;
23304;SDS011;11821;51.456;8.844;2023-07-02T12:44:04;18.30;;;10.35;;
23304;SDS011;11821;51.456;8.844;2023-07-02T12:46:30;17.77;;;10.52;;
23304;SDS011;11821;51.456;8.844;2023-07-02T12:48:56;17.08;;;10.90;;
23304;SDS011;11821;51.456;8.844;2023-07-02T12:51:23;20.77;;;12.10;;
23304;SDS011;11821;51.456;8.844;2023-07-02T12:53:49;17.55;;;10.48;;
23304;SDS011;11821;51.456;8.844;2023-07-02T12:56:15;20.30;;;10.38;;
23304;SDS011;11821;51.456;8.844;2023-07-02T12:58:42;16.60;;;10.52;;
23304;SDS011;11821;51.456;8.844;2023-07-02T13:01:08;17.95;;;11.40;;
23304;SDS011;11821;51.456;8.844;2023-07-02T13:03:34;21.20;;;10.18;;
23304;SDS011;11821;51.456;8.844;2023-07-02T13:06:01;26.05;;;10.60;;
23304;SDS011;11821;51.456;8.844;2023-07-02T13:08:27;18.85;;;10.52;;
23304;SDS011;11821;51.456;8.844;2023-07-02T13:10:53;22.50;;;10.85;;
23304;SDS011;11821;51.456;8.844;2023-07-02T13:13:20;19.55;;;11.48;;
23304;SDS011;11821;51.456;8.844;2023-07-02T13:15:46;21.75;;;11.68;;
23304;SDS011;11821;51.456;8.844;2023-07-02T13:18:12;26.67;;;11.73;;
23304;SDS011;11821;51.456;8.844;2023-07-02T13:20:39;19.88;;;10.98;;
23304;SDS011;11821;51.456;8.844;2023-07-02T13:23:05;22.05;;;11.85;;
23304;SDS011;11821;51.456;8.844;2023-07-02T13:25:31;19.13;;;10.55;;
23304;SDS011;11821;51.456;8.844;2023-07-02T13:27:57;18.27;;;11.05;;
23304;SDS011;11821;51.456;8.844;2023-07-02T13:30:24;18.88;;;11.48;;
23304;SDS011;11821;51.456;8.844;2023-07-02T13:32:51;19.05;;;10.80;;
23304;SDS011;11821;51.456;8.844;2023-07-02T13:35:18;18.63;;;10.80;;
23304;SDS011;11821;51.456;8.844;2023-07-02T13:37:44;20.25;;;10.55;;
23304;SDS011;11821;51.456;8.844;2023-07-02T13:40:10;19.95;;;11.10;;
23304;SDS011;11821;51.456;8.844;2023-07-02T13:42:38;18.88;;;10.43;;
23304;SDS011;11821;51.456;8.844;2023-07-02T13:45:05;19.98;;;10.40;;
23304;SDS011;11821;51.456;8.844;2023-07-02T13:47:31;20.05;;;10.70;;
23304;SDS011;11821;51.456;8.844;2023-07-02T13:49:58;18.17;;;9.65;;
23304;SDS011;11821;51.456;8.844;2023-07-02T13:52:24;20.15;;;9.32;;
23304;SDS011;11821;51.456;8.844;2023-07-02T13:54:50;18.92;;;10.18;;
23304;SDS011;11821;51.456;8.844;2023-07-02T13:57:16;15.13;;;9.38;;
23304;SDS011;11821;51.456;8.844;2023-07-02T13:59:43;21.48;;;9.93;;
23304;SDS011;11821;51.456;8.844;2023-07-02T14:02:09;13.68;;;9.80;;
23304;SDS011;11821;51.456;8.844;2023-07-02T14:04:36;17.45;;;9.82;;
23304;SDS011;11821;51.456;8.844;2023-07-02T14:07:03;16.88;;;9.25;;
23304;SDS011;11821;51.456;8.844;2023-07-02T14:09:30;14.75;;;9.10;;
23304;SDS011;11821;51.456;8.844;2023-07-02T14:11:56;13.48;;;9.43;;
23304;SDS011;11821;51.456;8.844;2023-07-02T14:14:22;17.00;;;9.70;;
23304;SDS011;11821;51.456;8.844;2023-07-02T14:16:48;17.83;;;9.52;;
23304;SDS011;11821;51.456;8.844;2023-07-02T14:19:15;16.05;;;9.98;;
23304;SDS011;11821;51.456;8.844;2023-07-02T14:21:42;23.30;;;10.77;;
23304;SDS011;11821;51.456;8.844;2023-07-02T14:24:09;19.90;;;10.30;;
23304;SDS011;11821;51.456;8.844;2023-07-02T14:26:35;20.75;;;10.20;;
23304;SDS011;11821;51.456;8.844;2023-07-02T14:29:01;15.30;;;9.82;;
23304;SDS011;11821;51.456;8.844;2023-07-02T14:31:28;14.43;;;9.20;;
23304;SDS011;11821;51.456;8.844;2023-07-02T14:33:54;16.08;;;9.00;;
23304;SDS011;11821;51.456;8.844;2023-07-02T14:36:20;14.73;;;8.52;;
23304;SDS011;11821;51.456;8.844;2023-07-02T14:38:47;12.48;;;8.32;;
23304;SDS011;11821;51.456;8.844;2023-07-02T14:41:13;11.65;;;7.75;;
23304;SDS011;11821;51.456;8.844;2023-07-02T14:43:39;12.98;;;7.88;;